Time;durP1;ratioP1;P1;durP2;ratioP2;P2;SDS_P1;SDS_P2;PMS_P1;PMS_P2;Temp;Humidity;BMP_temperature;BMP_pressure;BME280_temperature;BME280_humidity;BME280_pressure;Samples;Min_cycle;Max_cycle;Signal;HPM_P1;HPM_P2
2022/03/08 00:01:35;;;;;;;8.35;4.45;;;3.10;1.00;;;;;;10369694;28;86332;-48
2022/03/08 00:06:35;;;;;;;9.77;4.93;;;3.10;1.00;;;;;;10368310;28;86200;-49
2022/03/08 00:11:36;;;;;;;10.73;4.13;;;3.00;1.00;;;;;;10353846;28;84382;-46
2022/03/08 00:16:37;;;;;;;10.77;4.65;;;3.00;1.00;;;;;;10370604;28;83739;-48
2022/03/08 00:21:38;;;;;;;12.32;4.93;;;3.00;1.00;;;;;;10371653;28;84099;-47
2022/03/08 00:26:39;;;;;;;9.70;4.82;;;3.00;1.00;;;;;;10369773;28;84144;-49
2022/03/08 00:31:39;;;;;;;10.95;4.80;;;3.00;1.00;;;;;;10370318;28;83693;-48
2022/03/08 00:36:42;;;;;;;10.02;5.00;;;2.90;1.00;;;;;;10367671;28;85213;-46
2022/03/08 00:41:44;;;;;;;7.95;4.40;;;2.90;1.00;;;;;;10370480;28;84248;-52
2022/03/08 00:46:45;;;;;;;9.43;4.63;;;2.90;1.00;;;;;;10369158;28;84140;-48
2022/03/08 00:51:46;;;;;;;12.23;5.05;;;2.80;1.00;;;;;;10369658;28;84258;-48
2022/03/08 00:56:47;;;;;;;14.82;5.30;;;2.70;1.00;;;;;;10368613;28;84087;-49
2022/03/08 01:01:47;;;;;;;9.23;4.47;;;2.70;1.00;;;;;;10368654;28;85419;-47
2022/03/08 01:06:48;;;;;;;10.40;4.78;;;2.70;1.00;;;;;;10368702;28;83995;-47
2022/03/08 01:11:49;;;;;;;14.15;5.55;;;2.70;1.00;;;;;;10367655;28;86190;-49
2022/03/08 01:16:49;;;;;;;13.57;4.80;;;2.60;1.00;;;;;;10368151;28;83934;-47
2022/03/08 01:21:50;;;;;;;10.07;4.47;;;2.60;1.00;;;;;;10367607;28;85275;-48
2022/03/08 01:26:51;;;;;;;10.30;4.82;;;2.50;1.00;;;;;;10365835;28;86323;-49
2022/03/08 01:31:51;;;;;;;9.63;4.40;;;2.50;1.00;;;;;;10367879;28;83746;-50
2022/03/08 01:36:54;;;;;;;9.20;4.03;;;2.40;1.00;;;;;;10365548;28;85986;-48
2022/03/08 01:41:55;;;;;;;6.45;3.67;;;2.40;1.00;;;;;;10366728;28;83801;-47
2022/03/08 01:46:56;;;;;;;8.15;4.00;;;2.50;1.00;;;;;;10364356;28;84989;-48
2022/03/08 01:51:57;;;;;;;8.02;3.92;;;2.50;1.00;;;;;;10368162;28;83686;-49
2022/03/08 01:56:57;;;;;;;7.50;3.95;;;2.50;1.00;;;;;;10349414;28;85008;-46
2022/03/08 02:01:58;;;;;;;7.60;3.83;;;2.50;1.00;;;;;;10367869;28;84199;-49
2022/03/08 02:07:00;;;;;;;13.98;4.75;;;2.40;1.00;;;;;;10366242;28;84252;-49
2022/03/08 02:12:02;;;;;;;10.35;5.03;;;2.30;1.00;;;;;;10367179;28;83739;-48
2022/03/08 02:17:03;;;;;;;7.53;4.47;;;2.30;1.00;;;;;;10347653;28;84135;-47
2022/03/08 02:22:04;;;;;;;9.55;3.88;;;2.20;1.00;;;;;;10366404;28;83820;-47
2022/03/08 02:27:06;;;;;;;7.88;4.28;;;2.20;1.00;;;;;;10347283;28;84895;-49
2022/03/08 02:32:07;;;;;;;8.52;4.18;;;2.10;1.00;;;;;;10366653;28;83813;-47
2022/03/08 02:37:11;;;;;;;11.02;4.35;;;2.10;1.00;;;;;;10366375;28;83780;-47
2022/03/08 02:42:12;;;;;;;8.32;4.05;;;2.00;1.00;;;;;;10366382;28;83699;-46
2022/03/08 02:47:12;;;;;;;7.65;3.85;;;2.10;1.00;;;;;;10367227;28;84016;-47
2022/03/08 02:52:13;;;;;;;9.35;3.88;;;2.10;1.00;;;;;;10366378;28;83645;-47
2022/03/08 02:57:13;;;;;;;8.95;4.30;;;2.00;1.00;;;;;;10352242;28;85550;-49
2022/03/08 03:02:14;;;;;;;9.82;4.97;;;1.90;1.00;;;;;;10368016;28;85073;-47
2022/03/08 03:07:15;;;;;;;7.25;3.35;;;1.90;1.00;;;;;;10380935;28;84000;-51
2022/03/08 03:12:16;;;;;;;7.68;3.70;;;1.90;1.00;;;;;;10395843;28;83686;-47
2022/03/08 03:17:17;;;;;;;9.43;4.00;;;1.90;1.00;;;;;;10391877;28;84098;-47
2022/03/08 03:22:17;;;;;;;17.27;6.53;;;1.90;1.00;;;;;;10397351;28;84165;-48
2022/03/08 03:27:18;;;;;;;8.23;3.60;;;1.90;1.00;;;;;;10389682;28;83913;-47
2022/03/08 03:32:19;;;;;;;6.13;3.10;;;1.80;1.00;;;;;;10390085;28;83777;-47
2022/03/08 03:37:20;;;;;;;9.77;3.35;;;1.80;1.00;;;;;;10386851;28;85241;-48
2022/03/08 03:42:20;;;;;;;8.88;4.25;;;1.70;1.00;;;;;;10372688;28;84108;-48
2022/03/08 03:47:21;;;;;;;6.93;3.08;;;1.70;1.00;;;;;;10362371;28;85956;-49
2022/03/08 03:52:22;;;;;;;8.32;3.50;;;1.80;1.00;;;;;;10353642;28;84992;-47
2022/03/08 03:57:22;;;;;;;8.85;4.38;;;1.80;1.00;;;;;;10370659;28;84137;-47
2022/03/08 04:02:23;;;;;;;6.30;3.72;;;1.80;1.00;;;;;;10353038;28;84523;-53
2022/03/08 04:07:24;;;;;;;5.90;3.35;;;1.70;1.00;;;;;;10370643;28;83439;-49
2022/03/08 04:12:24;;;;;;;10.07;4.18;;;1.70;1.00;;;;;;10371421;28;83930;-46
2022/03/08 04:17:25;;;;;;;7.70;3.90;;;1.70;1.00;;;;;;10369545;28;84151;-47
2022/03/08 04:22:25;;;;;;;11.00;4.30;;;1.60;1.00;;;;;;10370223;28;84091;-48
2022/03/08 04:27:26;;;;;;;7.70;3.78;;;1.60;1.00;;;;;;10370254;28;83876;-49
2022/03/08 04:32:27;;;;;;;6.45;3.72;;;1.60;1.00;;;;;;10371464;28;84181;-47
2022/03/08 04:37:27;;;;;;;7.70;4.07;;;1.60;1.00;;;;;;10372447;28;83605;-50
2022/03/08 04:42:28;;;;;;;9.50;4.25;;;1.50;1.00;;;;;;10371055;28;85152;-50
2022/03/08 04:47:28;;;;;;;8.38;4.13;;;1.50;1.00;;;;;;10352816;28;84096;-48
2022/03/08 04:52:29;;;;;;;11.32;4.47;;;1.50;1.00;;;;;;10370324;28;83699;-48
2022/03/08 04:57:30;;;;;;;7.07;3.60;;;1.60;1.00;;;;;;10367069;28;84357;-52
2022/03/08 05:02:31;;;;;;;10.25;4.03;;;1.60;1.00;;;;;;10369055;28;84182;-47
2022/03/08 05:07:31;;;;;;;7.80;3.60;;;1.50;1.00;;;;;;10368046;28;83657;-50
2022/03/08 05:12:34;;;;;;;7.95;3.80;;;1.40;1.00;;;;;;10362194;28;83750;-47
2022/03/08 05:17:34;;;;;;;7.18;2.88;;;1.40;1.00;;;;;;10366533;28;86195;-49
2022/03/08 05:22:35;;;;;;;7.50;3.65;;;1.30;1.00;;;;;;10369591;28;83786;-46
2022/03/08 05:27:37;;;;;;;9.80;3.95;;;1.20;1.00;;;;;;10368190;28;83678;-49
2022/03/08 05:32:38;;;;;;;9.88;4.05;;;1.30;1.00;;;;;;10351303;28;83765;-49
2022/03/08 05:37:38;;;;;;;31.05;10.05;;;1.20;1.00;;;;;;10366176;28;85142;-48
2022/03/08 05:42:39;;;;;;;9.68;4.35;;;1.30;1.00;;;;;;10367070;28;84253;-49
2022/03/08 05:47:41;;;;;;;10.40;5.40;;;1.20;1.00;;;;;;10366348;28;84341;-46
2022/03/08 05:52:42;;;;;;;6.00;3.17;;;1.20;1.00;;;;;;10350840;28;84164;-46
2022/03/08 05:57:42;;;;;;;6.10;2.72;;;1.20;1.00;;;;;;10366351;28;83930;-49
2022/03/08 06:02:43;;;;;;;6.63;3.70;;;1.20;1.00;;;;;;10367860;28;83720;-43
2022/03/08 06:07:44;;;;;;;9.55;3.85;;;1.20;1.00;;;;;;10366272;28;83738;-50
2022/03/08 06:12:44;;;;;;;10.33;4.47;;;1.20;1.00;;;;;;10357989;28;84140;-46
2022/03/08 06:17:45;;;;;;;7.20;3.90;;;1.30;1.00;;;;;;10361863;28;83945;-47
2022/03/08 06:22:46;;;;;;;7.68;3.55;;;1.30;1.00;;;;;;10364937;28;83868;-47
2022/03/08 06:27:46;;;;;;;7.90;4.13;;;1.30;1.00;;;;;;10362133;28;84182;-46
2022/03/08 06:32:47;;;;;;;9.55;3.65;;;1.30;1.00;;;;;;10366126;28;84097;-50
2022/03/08 06:37:47;;;;;;;6.72;3.25;;;1.40;1.00;;;;;;10363349;28;84114;-47
2022/03/08 06:42:49;;;;;;;7.85;3.58;;;1.40;1.00;;;;;;10361543;28;84338;-49
2022/03/08 06:47:50;;;;;;;8.00;3.72;;;1.50;1.00;;;;;;10364523;28;83930;-49
2022/03/08 06:52:51;;;;;;;9.05;4.30;;;1.60;1.00;;;;;;10366691;28;84090;-46
2022/03/08 06:57:51;;;;;;;6.50;3.25;;;1.70;1.00;;;;;;10362813;28;84944;-47
2022/03/08 07:02:52;;;;;;;5.40;3.30;;;1.80;1.00;;;;;;10365443;28;84342;-48
2022/03/08 07:07:53;;;;;;;6.53;3.08;;;2.00;1.00;;;;;;10364309;28;84039;-52
2022/03/08 07:12:53;;;;;;;7.07;3.28;;;2.60;1.00;;;;;;10331037;28;86151;-52
2022/03/08 07:17:54;;;;;;;7.57;3.67;;;3.30;1.00;;;;;;10365279;28;84110;-48
2022/03/08 07:22:55;;;;;;;5.22;3.35;;;3.90;1.00;;;;;;10347444;28;83939;-48
2022/03/08 07:27:56;;;;;;;7.38;3.28;;;4.40;1.00;;;;;;10338560;28;83817;-51
2022/03/08 07:32:57;;;;;;;7.25;3.75;;;4.60;99.90;;;;;;10365802;28;84341;-48
2022/03/08 07:37:57;;;;;;;6.22;3.67;;;4.90;99.90;;;;;;10351411;28;83756;-52
2022/03/08 07:42:59;;;;;;;10.32;4.00;;;5.40;99.90;;;;;;10370239;28;84159;-53
2022/03/08 07:47:59;;;;;;;5.63;3.60;;;5.70;99.90;;;;;;10370740;28;83291;-48
2022/03/08 07:53:00;;;;;;;8.90;4.10;;;6.40;1.00;;;;;;10371149;28;83860;-50
2022/03/08 07:58:04;;;;;;;8.52;4.28;;;7.00;1.00;;;;;;10351911;28;83789;-47
2022/03/08 08:03:04;;;;;;;10.10;4.28;;;7.40;1.00;;;;;;10370820;28;83952;-47
2022/03/08 08:08:06;;;;;;;8.50;4.50;;;7.70;99.90;;;;;;10372577;28;83873;-52
2022/03/08 08:13:07;;;;;;;9.43;4.43;;;8.40;99.90;;;;;;10371807;28;85083;-51
2022/03/08 08:18:07;;;;;;;5.90;4.03;;;8.70;1.00;;;;;;10370771;28;83371;-49
2022/03/08 08:23:08;;;;;;;9.32;4.68;;;9.30;99.90;;;;;;10356583;28;83820;-48
2022/03/08 08:28:09;;;;;;;6.55;4.38;;;10.00;1.00;;;;;;10369537;28;83884;-50
2022/03/08 08:33:09;;;;;;;8.40;4.25;;;10.20;99.90;;;;;;10364420;28;83907;-48
2022/03/08 08:38:10;;;;;;;9.20;4.53;;;10.40;99.90;;;;;;10368533;28;85043;-48
2022/03/08 08:43:11;;;;;;;8.00;4.18;;;10.60;1.00;;;;;;10369991;28;83726;-49
2022/03/08 08:48:11;;;;;;;10.80;4.75;;;10.40;1.00;;;;;;10368516;28;83697;-49
2022/03/08 08:53:12;;;;;;;8.75;5.15;;;10.90;1.00;;;;;;10368469;28;84067;-49
2022/03/08 08:58:13;;;;;;;10.55;5.03;;;11.50;99.90;;;;;;10367062;28;84136;-52
2022/03/08 09:03:16;;;;;;;7.00;4.30;;;11.80;77.60;;;;;;10369326;28;83433;-52
2022/03/08 09:08:23;;;;;;;9.98;5.32;;;12.60;1.00;;;;;;10366709;28;83446;-52
2022/03/08 09:13:25;;;;;;;10.55;5.63;;;12.70;1.00;;;;;;10365446;28;84224;-51
2022/03/08 09:18:26;;;;;;;8.93;4.35;;;13.10;99.90;;;;;;10374244;28;84100;-52
2022/03/08 09:23:26;;;;;;;8.68;4.63;;;13.30;54.50;;;;;;10368989;28;83332;-47
2022/03/08 09:28:27;;;;;;;10.93;4.53;;;13.30;1.00;;;;;;10364794;28;86213;-47
2022/03/08 09:33:28;;;;;;;7.20;4.35;;;13.30;1.00;;;;;;10367738;28;84273;-48
2022/03/08 09:38:28;;;;;;;6.07;3.92;;;13.70;1.00;;;;;;10357252;28;83786;-54
2022/03/08 09:43:30;;;;;;;6.25;3.95;;;14.00;1.00;;;;;;10353290;28;84286;-50
2022/03/08 09:48:31;;;;;;;7.50;3.30;;;14.30;1.00;;;;;;10357151;28;83620;-50
2022/03/08 09:53:32;;;;;;;7.78;3.67;;;13.80;99.90;;;;;;10366695;28;84053;-49
2022/03/08 09:58:33;;;;;;;7.53;3.10;;;13.80;99.90;;;;;;10364609;28;83997;-53
2022/03/08 10:03:46;;;;;;;5.78;3.30;;;14.60;99.90;;;;;;10366356;28;84373;-53
2022/03/08 10:08:47;;;;;;;4.22;3.60;;;14.90;99.90;;;;;;10364186;28;83955;-53
2022/03/08 10:13:50;;;;;;;7.10;3.22;;;15.20;99.90;;;;;;10365762;28;86357;-52
2022/03/08 10:18:57;;;;;;;5.78;3.40;;;15.00;38.60;;;;;;10366032;28;84545;-50
2022/03/08 10:24:01;;;;;;;9.73;4.03;;;15.40;1.00;;;;;;10366641;28;84172;-51
2022/03/08 10:29:03;;;;;;;5.07;3.22;;;15.80;1.00;;;;;;10365273;28;84942;-49
2022/03/08 10:34:08;;;;;;;4.63;3.20;;;15.00;1.00;;;;;;10366129;28;83861;-50
2022/03/08 10:39:15;;;;;;;3.92;3.10;;;15.50;1.00;;;;;;10362161;28;83825;-51
2022/03/08 10:44:28;;;;;;;4.38;3.58;;;15.20;99.90;;;;;;10362595;28;84088;-55
2022/03/08 10:49:29;;;;;;;4.78;3.30;;;15.90;1.00;;;;;;10359525;28;84241;-52
2022/03/08 10:54:30;;;;;;;6.15;3.10;;;16.20;1.00;;;;;;10365618;28;84162;-52
2022/03/08 10:59:31;;;;;;;5.50;3.03;;;15.80;1.00;;;;;;10358264;28;84146;-53
2022/03/08 11:04:32;;;;;;;4.60;2.80;;;14.60;1.00;;;;;;10345084;28;84143;-50
2022/03/08 11:09:32;;;;;;;3.10;2.70;;;15.50;1.00;;;;;;10364059;28;86827;-50
2022/03/08 11:14:34;;;;;;;5.03;2.90;;;15.80;1.00;;;;;;10362660;28;83922;-47
2022/03/08 11:19:35;;;;;;;3.97;2.85;;;16.00;1.00;;;;;;10350285;28;84097;-57
2022/03/08 11:24:36;;;;;;;3.97;2.63;;;15.00;1.00;;;;;;10362130;28;84120;-54
2022/03/08 11:29:38;;;;;;;6.85;2.97;;;15.30;1.00;;;;;;10354237;28;85325;-50
2022/03/08 11:34:45;;;;;;;4.10;2.70;;;14.80;1.00;;;;;;10367366;28;83678;-53
2022/03/08 11:40:05;;;;;;;4.65;2.97;;;15.50;1.00;;;;;;10363321;28;84639;-53
2022/03/08 11:45:11;;;;;;;4.28;2.75;;;15.00;1.00;;;;;;10371433;28;83955;-49
2022/03/08 11:50:20;;;;;;;3.33;2.60;;;16.10;1.00;;;;;;10368561;28;83983;-51
2022/03/08 11:55:26;;;;;;;5.13;2.80;;;15.60;1.00;;;;;;10368886;28;85398;-47
2022/03/08 12:00:33;;;;;;;3.45;2.65;;;15.10;1.00;;;;;;10361878;28;83764;-52
2022/03/08 12:05:56;;;;;;;4.40;2.70;;;15.50;1.00;;;;;;10370053;28;84194;-49
2022/03/08 12:11:01;;;;;;;4.50;2.30;;;16.30;1.00;;;;;;10369319;28;84222;-50
2022/03/08 12:16:10;;;;;;;3.50;2.00;;;15.20;1.00;;;;;;10364998;28;83880;-50
2022/03/08 12:21:16;;;;;;;3.97;2.60;;;16.10;1.00;;;;;;10369788;28;83758;-50
2022/03/08 12:26:38;;;;;;;2.70;2.10;;;16.10;1.00;;;;;;10368378;28;83991;-56
2022/03/08 12:31:57;;;;;;;3.97;2.42;;;15.20;1.00;;;;;;10367696;28;86129;-47
2022/03/08 12:37:10;;;;;;;4.63;2.65;;;16.00;1.00;;;;;;10365425;28;83734;-47
2022/03/08 12:42:31;;;;;;;4.40;2.60;;;16.10;1.00;;;;;;10361784;28;83572;-49
2022/03/08 12:47:36;;;;;;;3.83;2.50;;;16.00;99.90;;;;;;10349639;28;83898;-48
2022/03/08 12:52:42;;;;;;;4.03;2.38;;;16.10;99.90;;;;;;10368700;28;83659;-53
2022/03/08 12:57:45;;;;;;;2.58;1.92;;;16.50;1.00;;;;;;10368783;28;84303;-49
2022/03/08 13:02:48;;;;;;;2.70;1.77;;;16.60;1.00;;;;;;10358037;28;84092;-50
2022/03/08 13:07:53;;;;;;;3.35;2.28;;;16.50;99.90;;;;;;10366385;28;83987;-53
2022/03/08 13:12:59;;;;;;;3.25;2.17;;;15.10;99.90;;;;;;10369330;28;83333;-52
2022/03/08 13:18:02;;;;;;;7.07;2.20;;;16.00;1.00;;;;;;10368478;28;84467;-54
2022/03/08 13:23:18;;;;;;;2.15;1.95;;;15.90;99.90;;;;;;10369371;28;83407;-52
2022/03/08 13:28:21;;;;;;;4.43;2.47;;;15.90;99.90;;;;;;10357087;28;83300;-50
2022/03/08 13:33:30;;;;;;;3.70;2.15;;;15.60;99.90;;;;;;10344926;28;85443;-54
2022/03/08 13:38:36;;;;;;;4.78;2.50;;;15.40;99.90;;;;;;10362593;28;84085;-56
2022/03/08 13:43:38;;;;;;;3.78;1.98;;;15.10;99.90;;;;;;10366621;28;83324;-56
2022/03/08 13:48:45;;;;;;;3.45;2.45;;;15.00;99.90;;;;;;10359102;28;83399;-52
2022/03/08 13:53:45;;;;;;;3.30;2.03;;;15.30;99.90;;;;;;10367921;28;84317;-53
2022/03/08 13:58:55;;;;;;;3.55;2.15;;;15.60;1.00;;;;;;10364975;28;83403;-55
2022/03/08 14:03:59;;;;;;;2.88;2.17;;;15.50;99.90;;;;;;10362553;28;83523;-59
2022/03/08 14:09:01;;;;;;;4.03;2.45;;;15.10;99.90;;;;;;10367011;28;83216;-57
2022/03/08 14:14:02;;;;;;;4.68;2.20;;;14.40;99.90;;;;;;10367225;28;83397;-55
2022/03/08 14:19:03;;;;;;;3.13;1.80;;;13.20;99.90;;;;;;10366180;28;83936;-48
2022/03/08 14:24:11;;;;;;;2.83;1.70;;;12.50;99.90;;;;;;10354069;28;84432;-52
2022/03/08 14:29:15;;;;;;;3.42;2.03;;;12.70;99.90;;;;;;10363735;28;85143;-48
2022/03/08 14:34:20;;;;;;;3.10;1.90;;;12.60;99.90;;;;;;10366153;28;84404;-47
2022/03/08 14:39:33;;;;;;;3.60;2.60;;;12.70;99.90;;;;;;10359624;28;84094;-52
2022/03/08 14:44:35;;;;;;;2.67;1.88;;;12.60;99.90;;;;;;10351315;28;83389;-48
2022/03/08 14:49:39;;;;;;;4.28;1.80;;;13.00;99.90;;;;;;10363593;28;84191;-48
2022/03/08 14:54:40;;;;;;;6.53;2.10;;;13.70;99.90;;;;;;10462314;22;84605;-58
2022/03/08 14:59:41;;;;;;;3.97;2.28;;;13.80;99.90;;;;;;10458218;28;83424;-56
2022/03/08 15:04:41;;;;;;;3.67;1.90;;;13.90;99.90;;;;;;10421607;28;83673;-58
2022/03/08 15:09:43;;;;;;;2.10;1.60;;;14.30;99.90;;;;;;10413421;28;83811;-53
2022/03/08 15:14:44;;;;;;;4.28;1.98;;;14.10;99.90;;;;;;10414430;28;84110;-60
2022/03/08 15:19:46;;;;;;;2.72;1.85;;;13.80;99.90;;;;;;10414176;28;84075;-61
2022/03/08 15:24:47;;;;;;;5.05;1.65;;;12.80;32.10;;;;;;10420272;28;84152;-65
2022/03/08 15:29:47;;;;;;;4.93;1.75;;;12.40;71.20;;;;;;10443216;27;83587;-63
2022/03/08 15:34:48;;;;;;;2.25;1.60;;;12.00;99.90;;;;;;10442902;27;85123;-62
2022/03/08 15:39:49;;;;;;;1.95;1.58;;;11.70;99.90;;;;;;10415367;28;83381;-62
2022/03/08 15:44:49;;;;;;;1.95;1.45;;;11.50;99.90;;;;;;10419087;28;84054;-62
2022/03/08 15:49:50;;;;;;;2.92;1.83;;;11.30;98.40;;;;;;10419952;28;83623;-63
2022/03/08 15:54:51;;;;;;;3.95;1.70;;;11.20;99.90;;;;;;10414675;28;84528;-62
2022/03/08 15:59:53;;;;;;;2.83;1.63;;;11.20;94.50;;;;;;10413746;28;84027;-57
2022/03/08 16:04:53;;;;;;;3.65;1.55;;;11.10;99.90;;;;;;10410844;28;84170;-58
2022/03/08 16:09:54;;;;;;;3.08;1.60;;;11.00;99.90;;;;;;10406926;28;83326;-55
2022/03/08 16:14:54;;;;;;;2.15;1.60;;;10.90;99.90;;;;;;10409104;28;84667;-52
2022/03/08 16:19:55;;;;;;;2.90;1.63;;;10.90;99.90;;;;;;10408942;28;83430;-56
2022/03/08 16:24:56;;;;;;;2.45;1.77;;;10.80;90.50;;;;;;10411760;28;83969;-60
2022/03/08 16:29:56;;;;;;;3.97;2.00;;;10.80;99.90;;;;;;10409134;28;83792;-57
2022/03/08 16:34:57;;;;;;;2.60;1.58;;;10.70;99.90;;;;;;10402219;28;83367;-58
2022/03/08 16:39:58;;;;;;;4.00;1.77;;;10.60;99.90;;;;;;10406475;28;83339;-56
2022/03/08 16:44:59;;;;;;;4.35;2.20;;;10.50;99.90;;;;;;10410257;28;84285;-54
2022/03/08 16:50:00;;;;;;;3.95;2.30;;;10.40;98.50;;;;;;10407350;28;83411;-53
2022/03/08 16:55:01;;;;;;;3.30;1.90;;;10.40;99.90;;;;;;10414818;28;84193;-54
2022/03/08 17:00:03;;;;;;;3.90;2.00;;;10.30;99.90;;;;;;10411046;28;83402;-54
2022/03/08 17:05:06;;;;;;;4.85;1.90;;;10.20;99.90;;;;;;10409109;28;83459;-53
2022/03/08 17:10:08;;;;;;;4.30;1.92;;;10.20;99.90;;;;;;10404761;28;85602;-52
2022/03/08 17:15:09;;;;;;;5.57;2.47;;;10.20;99.90;;;;;;10405375;28;84292;-51
2022/03/08 17:20:11;;;;;;;3.78;2.03;;;10.00;99.90;;;;;;10393222;28;83843;-49
2022/03/08 17:25:13;;;;;;;5.45;2.38;;;9.90;99.90;;;;;;10411035;28;84144;-51
2022/03/08 17:30:14;;;;;;;6.45;2.53;;;9.80;99.90;;;;;;10403800;28;84233;-50
2022/03/08 17:35:15;;;;;;;7.55;3.08;;;9.60;99.90;;;;;;10408329;28;84081;-51
2022/03/08 17:40:16;;;;;;;5.22;2.95;;;9.50;99.90;;;;;;10403259;28;84117;-51
2022/03/08 17:45:16;;;;;;;7.63;2.78;;;9.40;99.90;;;;;;10411299;28;84298;-50
2022/03/08 17:50:17;;;;;;;4.13;2.67;;;9.20;99.90;;;;;;10408568;28;83857;-51
2022/03/08 17:55:18;;;;;;;6.20;2.67;;;9.20;99.90;;;;;;10400841;28;83626;-49
2022/03/08 18:00:19;;;;;;;5.95;3.00;;;9.00;99.90;;;;;;10406863;28;84161;-53
2022/03/08 18:05:19;;;;;;;4.75;2.70;;;9.00;1.00;;;;;;10405857;28;83881;-53
2022/03/08 18:10:21;;;;;;;6.45;3.10;;;8.90;1.00;;;;;;10398782;28;85317;-50
2022/03/08 18:15:22;;;;;;;6.57;3.20;;;8.90;99.90;;;;;;10389543;28;85589;-49
2022/03/08 18:20:22;;;;;;;4.38;2.55;;;8.80;1.00;;;;;;10392932;28;85077;-53
2022/03/08 18:25:23;;;;;;;5.22;2.88;;;8.70;1.00;;;;;;10391478;28;84520;-54
2022/03/08 18:30:24;;;;;;;7.50;2.95;;;8.60;1.00;;;;;;10384736;28;84089;-55
2022/03/08 18:35:26;;;;;;;4.30;2.53;;;8.50;1.00;;;;;;10397161;28;85863;-51
2022/03/08 18:40:27;;;;;;;5.40;2.90;;;8.40;1.00;;;;;;10388451;28;83416;-54
2022/03/08 18:45:28;;;;;;;5.07;2.70;;;8.30;1.00;;;;;;10377189;28;84519;-50
2022/03/08 18:50:29;;;;;;;4.95;2.72;;;8.20;1.00;;;;;;10394175;28;84414;-53
2022/03/08 18:55:29;;;;;;;4.30;2.72;;;8.00;1.00;;;;;;10408767;28;83937;-53
2022/03/08 19:00:30;;;;;;;5.45;2.83;;;8.00;1.00;;;;;;10408747;28;84247;-52
2022/03/08 19:05:31;;;;;;;5.32;3.25;;;7.80;1.00;;;;;;10398523;28;84200;-49
2022/03/08 19:10:32;;;;;;;5.63;3.00;;;7.80;1.00;;;;;;10393879;28;83662;-52
2022/03/08 19:15:33;;;;;;;4.72;3.00;;;7.60;1.00;;;;;;10388929;28;83937;-60
2022/03/08 19:20:33;;;;;;;6.70;2.83;;;7.50;1.00;;;;;;10377614;28;83379;-61
2022/03/08 19:25:35;;;;;;;5.65;2.53;;;7.40;99.90;;;;;;10375492;28;84192;-62
2022/03/08 19:30:35;;;;;;;4.90;2.45;;;7.30;99.90;;;;;;10371037;28;84112;-62
2022/03/08 19:35:36;;;;;;;5.25;2.40;;;7.20;99.90;;;;;;10370088;28;85373;-59
2022/03/08 19:40:37;;;;;;;5.75;2.53;;;7.20;1.00;;;;;;10380303;28;84130;-61
2022/03/08 19:45:39;;;;;;;7.60;3.60;;;7.20;1.00;;;;;;10407084;28;84028;-61
2022/03/08 19:50:40;;;;;;;4.25;2.72;;;7.10;1.00;;;;;;10413165;28;83590;-61
2022/03/08 19:55:43;;;;;;;6.97;3.00;;;7.00;1.00;;;;;;10423824;28;83557;-58
2022/03/08 20:00:44;;;;;;;5.68;2.60;;;7.00;1.00;;;;;;10411172;28;84107;-63
2022/03/08 20:05:45;;;;;;;8.75;3.05;;;6.90;1.00;;;;;;10416106;28;84087;-58
2022/03/08 20:10:46;;;;;;;6.55;2.97;;;6.90;1.00;;;;;;10414287;28;83298;-59
2022/03/08 20:15:48;;;;;;;8.75;2.85;;;6.80;1.00;;;;;;10413802;28;84208;-61
2022/03/08 20:20:48;;;;;;;6.78;2.50;;;6.70;1.00;;;;;;10445618;27;84218;-60
2022/03/08 20:25:50;;;;;;;6.05;2.38;;;6.60;27.00;;;;;;10410052;28;84006;-62
2022/03/08 20:30:52;;;;;;;5.25;2.53;;;6.50;99.90;;;;;;10412981;28;84248;-62
2022/03/08 20:35:55;;;;;;;3.78;2.47;;;6.50;99.90;;;;;;10411000;28;86308;-62
2022/03/08 20:40:55;;;;;;;4.55;2.47;;;6.40;99.90;;;;;;10446306;27;83486;-62
2022/03/08 20:45:56;;;;;;;6.70;2.40;;;6.40;1.00;;;;;;10444111;27;85178;-56
2022/03/08 20:50:58;;;;;;;5.22;2.90;;;6.30;1.00;;;;;;10428756;22;84622;-50
2022/03/08 20:55:59;;;;;;;3.88;2.30;;;6.30;1.00;;;;;;10404682;28;84025;-48
2022/03/08 21:01:00;;;;;;;5.13;2.53;;;6.30;1.00;;;;;;10433867;28;85295;-53
2022/03/08 21:06:01;;;;;;;3.20;2.35;;;6.30;1.00;;;;;;10396432;28;83411;-49
2022/03/08 21:11:02;;;;;;;4.25;2.60;;;6.20;99.90;;;;;;10415025;28;83994;-48
2022/03/08 21:16:03;;;;;;;6.13;2.92;;;6.00;1.00;;;;;;10413500;28;84490;-51
2022/03/08 21:21:03;;;;;;;5.53;2.88;;;6.00;1.00;;;;;;10395842;28;84104;-51
2022/03/08 21:26:04;;;;;;;7.03;2.63;;;6.00;4.10;;;;;;10412661;28;83482;-48
2022/03/08 21:31:05;;;;;;;5.55;2.95;;;5.90;99.90;;;;;;10394966;28;84289;-52
2022/03/08 21:36:06;;;;;;;6.65;2.88;;;5.80;1.00;;;;;;10411959;28;84265;-51
2022/03/08 21:41:07;;;;;;;3.95;2.55;;;5.80;1.00;;;;;;10412423;28;84120;-50
2022/03/08 21:46:08;;;;;;;4.68;2.80;;;5.60;99.90;;;;;;10410643;28;84140;-49
2022/03/08 21:51:09;;;;;;;4.90;2.60;;;5.50;1.00;;;;;;10410528;28;84065;-52
2022/03/08 21:56:09;;;;;;;9.55;3.33;;;5.50;1.00;;;;;;10410453;28;83447;-53
2022/03/08 22:01:10;;;;;;;6.13;2.92;;;5.50;1.00;;;;;;10410139;28;84144;-52
2022/03/08 22:06:10;;;;;;;4.57;2.75;;;5.40;99.90;;;;;;10388853;28;83285;-49
2022/03/08 22:11:12;;;;;;;7.50;3.45;;;5.40;99.90;;;;;;10379698;28;83980;-47
2022/03/08 22:16:13;;;;;;;5.57;2.67;;;5.40;99.90;;;;;;10401276;28;84159;-47
2022/03/08 22:21:15;;;;;;;8.65;3.72;;;5.30;1.00;;;;;;10367968;28;84135;-51
2022/03/08 22:26:15;;;;;;;6.63;3.38;;;5.20;1.00;;;;;;10377252;28;83748;-46
2022/03/08 22:31:16;;;;;;;6.18;2.88;;;5.20;1.00;;;;;;10367780;28;84186;-46
2022/03/08 22:36:17;;;;;;;5.65;3.45;;;5.20;1.00;;;;;;10370342;28;83595;-49
2022/03/08 22:41:18;;;;;;;5.72;3.55;;;5.10;1.00;;;;;;10367109;28;84032;-48
2022/03/08 22:46:19;;;;;;;6.95;3.70;;;5.10;1.00;;;;;;10374336;28;83798;-44
2022/03/08 22:56:39;;;;;;;7.47;2.95;;;5.00;1.00;;;;;;10372839;28;83804;-47
2022/03/08 23:01:40;;;;;;;5.07;2.60;;;4.90;1.00;;;;;;10370514;28;84216;-50
2022/03/08 23:06:40;;;;;;;7.47;3.42;;;4.90;9.90;;;;;;10373285;28;83956;-46
2022/03/08 23:11:41;;;;;;;6.72;3.35;;;4.90;25.00;;;;;;10376516;28;83922;-48
2022/03/08 23:16:42;;;;;;;7.15;3.45;;;4.90;89.50;;;;;;10379654;28;83771;-47
2022/03/08 23:21:43;;;;;;;9.73;3.42;;;4.90;99.70;;;;;;10380580;28;84180;-45
2022/03/08 23:26:43;;;;;;;8.75;3.78;;;4.80;99.90;;;;;;10379059;28;83638;-46
2022/03/08 23:31:45;;;;;;;8.63;3.28;;;4.70;99.90;;;;;;10372266;28;84136;-46
2022/03/08 23:36:46;;;;;;;8.02;3.70;;;4.60;99.90;;;;;;10351899;28;84247;-51
2022/03/08 23:41:46;;;;;;;7.93;3.90;;;4.60;99.90;;;;;;10371078;28;84096;-51
2022/03/08 23:46:47;;;;;;;8.85;3.67;;;4.50;99.90;;;;;;10379114;28;83469;-48
2022/03/08 23:51:48;;;;;;;9.02;3.47;;;4.40;99.90;;;;;;10370264;28;84015;-46
2022/03/08 23:56:48;;;;;;;6.05;3.60;;;4.30;99.90;;;;;;10387168;28;84399;-49
